Time;durP1;ratioP1;P1;durP2;ratioP2;P2;SDS_P1;SDS_P2;PMS_P1;PMS_P2;Temp;Humidity;BMP_temperature;BMP_pressure;BME280_temperature;BME280_humidity;BME280_pressure;Samples;Min_cycle;Max_cycle;Signal;HPM_P1;HPM_P2
2022/01/26 00:06:44;;;;;;;39.13;22.70;;;;;;;2.17;88.45;96695.16;4354812;32;20351;-57
2022/01/26 00:09:12;;;;;;;39.80;24.30;;;;;;;2.29;88.24;96685.66;4372576;32;20280;-55
2022/01/26 00:11:39;;;;;;;44.03;24.80;;;;;;;2.49;87.31;96685.59;4352873;32;20296;-56
2022/01/26 00:14:13;;;;;;;40.37;24.27;;;;;;;2.50;86.21;96682.75;4341215;32;20325;-57
2022/01/26 00:16:52;;;;;;;37.20;23.27;;;;;;;2.36;86.73;96682.00;4386519;32;20325;-56
2022/01/26 00:19:24;;;;;;;38.93;23.67;;;;;;;2.37;86.31;96682.81;4399290;32;20283;-56
2022/01/26 00:21:56;;;;;;;36.60;23.27;;;;;;;2.34;86.46;96685.84;4336882;32;20364;-57
2022/01/26 00:24:49;;;;;;;37.77;22.73;;;;;;;2.40;85.73;96687.63;4374623;32;20293;-56
2022/01/26 00:27:35;;;;;;;39.07;23.87;;;;;;;2.10;86.74;96686.53;4373862;32;20329;-57
2022/01/26 00:38:54;;;;;;;34.57;21.97;;;;;;;2.40;85.99;96671.94;4324408;32;20450;-54
2022/01/26 00:41:34;;;;;;;37.07;23.40;;;;;;;1.93;86.96;96684.34;4358533;32;20280;-56
2022/01/26 00:44:05;;;;;;;36.23;23.90;;;;;;;2.25;86.38;96679.25;4381072;32;20279;-56
2022/01/26 00:46:31;;;;;;;36.60;23.30;;;;;;;2.14;86.11;96672.03;4388585;32;20336;-57
2022/01/26 00:48:57;;;;;;;35.70;21.53;;;;;;;2.05;86.76;96674.88;4379166;32;20276;-55
2022/01/26 00:51:23;;;;;;;35.47;22.93;;;;;;;2.03;87.47;96663.81;4369636;32;20319;-55
2022/01/26 00:54:03;;;;;;;38.93;23.50;;;;;;;2.23;86.09;96666.38;4378023;32;20288;-56
2022/01/26 00:56:30;;;;;;;37.27;22.67;;;;;;;2.31;86.01;96667.94;4385231;32;20206;-55
2022/01/26 00:58:58;;;;;;;39.50;23.47;;;;;;;2.24;85.82;96672.41;4393909;32;20340;-57
2022/01/26 01:01:25;;;;;;;35.30;22.20;;;;;;;2.28;86.17;96679.66;4361393;32;20328;-56
2022/01/26 01:03:51;;;;;;;37.97;22.67;;;;;;;2.02;86.61;96674.50;4346443;32;20287;-55
2022/01/26 01:06:33;;;;;;;38.27;22.37;;;;;;;2.23;86.51;96683.88;4352690;32;20277;-57
2022/01/26 01:09:01;;;;;;;35.20;22.07;;;;;;;2.11;86.32;96682.91;4384535;32;20181;-53
2022/01/26 01:11:28;;;;;;;33.10;21.70;;;;;;;2.08;86.54;96671.84;4356891;32;20356;-56
2022/01/26 01:13:55;;;;;;;38.77;23.07;;;;;;;2.08;86.94;96680.72;4372081;32;20273;-56
2022/01/26 01:16:24;;;;;;;37.43;22.73;;;;;;;2.19;86.37;96680.06;4359457;32;20273;-53
2022/01/26 01:29:30;;;;;;;39.43;24.43;;;;;;;2.32;85.75;96665.09;4362106;32;20288;-55
2022/01/26 01:31:59;;;;;;;34.53;21.50;;;;;;;2.37;85.05;96657.44;4375913;32;20390;-54
2022/01/26 01:34:35;;;;;;;40.10;23.93;;;;;;;2.24;85.70;96656.69;4338562;32;20378;-55
2022/01/26 01:37:21;;;;;;;40.33;23.63;;;;;;;1.94;87.22;96654.56;4370586;32;20336;-57
2022/01/26 01:39:47;;;;;;;38.27;21.93;;;;;;;1.92;88.00;96661.81;4366363;32;20295;-56
2022/01/26 01:42:16;;;;;;;35.13;22.00;;;;;;;1.99;86.70;96664.44;4331543;32;20283;-55
2022/01/26 01:44:42;;;;;;;32.40;21.37;;;;;;;1.79;87.49;96671.53;4379913;32;20192;-56
2022/01/26 01:47:09;;;;;;;36.10;22.60;;;;;;;1.75;87.44;96670.31;4363117;32;20283;-55
2022/01/26 01:49:36;;;;;;;36.87;22.67;;;;;;;1.70;87.81;96668.31;4375916;32;20203;-66
2022/01/26 01:52:12;;;;;;;36.13;22.03;;;;;;;1.86;87.68;96669.72;4345915;32;20285;-56
2022/01/26 01:54:40;;;;;;;36.37;22.73;;;;;;;1.95;86.69;96663.22;4370703;32;20277;-66
2022/01/26 01:57:08;;;;;;;39.17;22.03;;;;;;;1.85;87.33;96661.06;4378237;32;20286;-59
2022/01/26 01:59:33;;;;;;;35.23;21.67;;;;;;;1.97;86.70;96656.78;4372548;32;20295;-54
2022/01/26 02:02:01;;;;;;;35.00;22.97;;;;;;;1.83;87.15;96655.22;4354447;32;20314;-55
2022/01/26 02:04:26;;;;;;;31.27;20.43;;;;;;;1.82;87.41;96643.16;4372277;32;20203;-56
2022/01/26 02:06:53;;;;;;;33.97;21.47;;;;;;;1.81;87.70;96638.91;4355530;32;20284;-53
2022/01/26 02:09:19;;;;;;;32.77;20.77;;;;;;;1.85;87.59;96642.75;4353705;32;20184;-54
2022/01/26 02:11:56;;;;;;;34.93;21.67;;;;;;;1.67;87.76;96651.22;4351419;32;20289;-56
2022/01/26 02:14:32;;;;;;;31.83;20.60;;;;;;;1.64;87.83;96643.00;4406842;32;20275;-55
2022/01/26 02:55:56;;;;;;;33.92;21.15;;;;;;;1.47;89.06;96636.56;4384845;32;20207;-54
2022/01/26 03:04:20;;;;;;;33.67;21.53;;;;;;;1.63;87.85;96628.31;4389622;32;20307;-54
2022/01/26 03:07:00;;;;;;;30.25;19.80;;;;;;;1.73;87.21;96623.44;4373221;32;20298;-56
2022/01/26 03:09:40;;;;;;;32.17;18.65;;;;;;;1.69;87.23;96623.03;4381426;32;20294;-54
2022/01/26 03:12:28;;;;;;;34.65;20.55;;;;;;;1.51;87.74;96620.25;4375700;32;20266;-56
2022/01/26 03:14:58;;;;;;;31.23;19.90;;;;;;;0.90;90.09;96611.88;4355346;32;20210;-57
2022/01/26 03:20:10;;;;;;;37.75;19.00;;;;;;;0.76;90.67;96618.09;4363856;32;20185;-54
2022/01/26 03:28:39;;;;;;;31.92;20.23;;;;;;;0.98;90.53;96609.06;4351243;32;20283;-57
2022/01/26 03:36:43;;;;;;;32.65;18.35;;;;;;;1.20;88.61;96617.50;4371233;32;20223;-55
2022/01/26 03:39:11;;;;;;;26.60;16.58;;;;;;;0.87;89.59;96617.47;4367341;32;20207;-58
2022/01/26 03:44:08;;;;;;;33.63;17.50;;;;;;;1.20;88.65;96620.91;4379486;32;20203;-57
2022/01/26 03:46:41;;;;;;;30.62;17.45;;;;;;;1.19;87.98;96624.53;4386863;32;20210;-56
2022/01/26 03:49:10;;;;;;;27.40;16.70;;;;;;;1.08;87.75;96625.13;4361830;32;20200;-57
2022/01/26 03:51:35;;;;;;;29.80;17.65;;;;;;;0.97;88.80;96623.13;4337416;32;20191;-65
2022/01/26 03:54:04;;;;;;;26.83;16.47;;;;;;;0.98;88.79;96624.75;4347698;32;20197;-54
2022/01/26 03:56:38;;;;;;;27.65;17.48;;;;;;;0.80;89.82;96632.37;4357979;32;20235;-55
2022/01/26 03:59:05;;;;;;;41.22;19.00;;;;;;;0.82;89.43;96635.59;4358349;32;20189;-55
2022/01/26 04:01:37;;;;;;;29.02;18.42;;;;;;;0.48;90.42;96632.09;4353500;32;20227;-55
2022/01/26 04:04:04;;;;;;;27.08;17.98;;;;;;;0.53;91.38;96632.31;4349374;32;20184;-54
2022/01/26 04:06:32;;;;;;;26.90;18.10;;;;;;;0.97;89.84;96630.97;4379382;32;20199;-54
2022/01/26 04:08:58;;;;;;;27.17;17.27;;;;;;;1.07;88.90;96623.50;4367966;32;20239;-54
2022/01/26 04:11:39;;;;;;;26.90;17.23;;;;;;;0.83;89.58;96624.91;4355847;32;20181;-55
2022/01/26 04:14:15;;;;;;;29.08;17.15;;;;;;;1.14;88.66;96629.56;4328808;32;20243;-55
2022/01/26 04:16:42;;;;;;;25.08;16.83;;;;;;;1.20;87.52;96628.75;4377759;32;20184;-55
2022/01/26 04:19:08;;;;;;;30.23;18.40;;;;;;;1.07;87.98;96636.56;4365642;32;20229;-55
2022/01/26 04:21:49;;;;;;;32.10;17.02;;;;;;;1.02;88.06;96631.19;4377037;32;20325;-55
2022/01/26 04:29:47;;;;;;;25.17;17.75;;;;;;;1.31;87.51;96632.56;4355304;32;20264;-56
2022/01/26 04:32:16;;;;;;;26.50;17.48;;;;;;;1.15;88.43;96631.16;4333712;32;20219;-56
2022/01/26 04:34:45;;;;;;;27.80;17.12;;;;;;;1.43;87.35;96635.38;4351318;32;20188;-54
2022/01/26 04:40:01;;;;;;;27.65;17.52;;;;;;;1.43;86.67;96628.34;4348240;32;20311;-56
2022/01/26 04:42:38;;;;;;;27.27;16.90;;;;;;;1.18;87.64;96630.78;4382233;32;20193;-54
2022/01/26 04:45:10;;;;;;;23.02;16.33;;;;;;;1.32;87.33;96632.34;4368469;32;20203;-56
2022/01/26 04:47:41;;;;;;;27.50;17.15;;;;;;;1.55;86.31;96628.50;4385845;32;20181;-54
2022/01/26 04:50:10;;;;;;;26.37;16.20;;;;;;;1.55;86.07;96625.91;4355229;32;20189;-55
2022/01/26 04:52:36;;;;;;;25.05;17.50;;;;;;;1.33;86.56;96631.34;4340189;32;20197;-66
2022/01/26 04:55:02;;;;;;;27.20;17.62;;;;;;;1.20;86.99;96633.19;4358445;32;20203;-56
2022/01/26 04:57:29;;;;;;;25.53;16.67;;;;;;;1.31;87.18;96629.94;4345268;32;20196;-54
2022/01/26 04:59:56;;;;;;;24.35;17.27;;;;;;;1.44;85.94;96637.00;4383309;32;20188;-55
2022/01/26 05:02:21;;;;;;;23.08;15.75;;;;;;;1.44;85.78;96635.19;4376039;32;20176;-53
2022/01/26 05:04:49;;;;;;;21.07;15.37;;;;;;;1.20;86.46;96633.19;4374442;32;20211;-53
2022/01/26 05:07:15;;;;;;;22.50;14.98;;;;;;;1.25;85.87;96635.97;4375933;32;20256;-54
2022/01/26 05:09:44;;;;;;;18.70;14.07;;;;;;;1.24;85.94;96637.81;4355984;32;20189;-54
2022/01/26 05:12:12;;;;;;;20.83;13.70;;;;;;;1.11;85.40;96645.63;4379831;32;20180;-54
2022/01/26 05:14:40;;;;;;;19.50;13.30;;;;;;;1.08;86.36;96645.22;4377670;32;20240;-55
2022/01/26 05:17:08;;;;;;;20.23;14.57;;;;;;;0.83;87.23;96643.19;4382221;32;20232;-54
2022/01/26 05:19:34;;;;;;;20.20;13.88;;;;;;;1.20;85.62;96635.78;4398422;32;20180;-54
2022/01/26 05:22:04;;;;;;;19.80;13.83;;;;;;;1.15;85.63;96633.78;4376483;32;20196;-53
2022/01/26 05:24:30;;;;;;;20.27;15.13;;;;;;;0.98;85.67;96637.81;4393449;32;20196;-53
2022/01/26 05:26:57;;;;;;;18.70;14.20;;;;;;;1.16;85.55;96638.00;4379658;32;20272;-54
2022/01/26 05:29:24;;;;;;;20.12;14.30;;;;;;;1.01;86.31;96637.41;4384237;32;20227;-54
2022/01/26 05:31:50;;;;;;;20.95;14.75;;;;;;;1.02;86.77;96636.41;4378614;32;20195;-50
2022/01/26 05:34:15;;;;;;;21.50;14.00;;;;;;;1.08;86.09;96645.22;4362359;32;20197;-54
2022/01/26 05:36:41;;;;;;;19.67;14.13;;;;;;;1.09;86.28;96637.19;4374288;32;20278;-54
2022/01/26 05:39:07;;;;;;;20.07;13.87;;;;;;;1.07;85.81;96633.97;4377377;32;20219;-59
2022/01/26 05:41:34;;;;;;;17.98;13.80;;;;;;;1.09;85.23;96637.19;4388055;32;20176;-55
2022/01/26 05:44:00;;;;;;;15.73;12.52;;;;;;;0.60;86.65;96633.13;4390252;32;20260;-53
2022/01/26 05:46:36;;;;;;;13.53;10.80;;;;;;;1.11;85.21;96632.56;4405298;32;20297;-54
2022/01/26 05:49:03;;;;;;;10.77;9.68;;;;;;;0.91;84.36;96631.75;4363603;32;20184;-56
2022/01/26 05:51:34;;;;;;;10.07;8.90;;;;;;;0.63;84.80;96635.31;4374910;32;20189;-57
2022/01/26 05:54:07;;;;;;;9.25;8.35;;;;;;;0.83;83.32;96637.19;4330322;32;20220;-55
2022/01/26 05:56:34;;;;;;;8.15;7.35;;;;;;;0.51;82.27;96644.75;4366701;32;20251;-57
2022/01/26 05:59:05;;;;;;;8.70;7.82;;;;;;;0.28;83.31;96657.31;4385136;32;20189;-55
2022/01/26 06:01:32;;;;;;;10.57;8.57;;;;;;;0.33;83.61;96658.34;4382919;32;20264;-54
2022/01/26 06:03:59;;;;;;;8.70;7.87;;;;;;;-0.01;83.67;96653.22;4367710;32;20290;-57
2022/01/26 06:06:27;;;;;;;8.88;8.02;;;;;;;0.14;83.72;96655.66;4369030;32;20289;-56
2022/01/26 06:08:57;;;;;;;8.77;7.97;;;;;;;0.29;83.43;96651.91;4357455;32;20189;-55
2022/01/26 06:11:24;;;;;;;8.80;7.95;;;;;;;0.60;82.10;96645.38;4370508;32;20241;-53
2022/01/26 06:13:49;;;;;;;9.32;8.43;;;;;;;0.82;80.90;96646.03;4380378;32;20215;-52
2022/01/26 06:16:16;;;;;;;9.83;8.83;;;;;;;0.91;79.96;96635.16;4351941;32;20236;-56
2022/01/26 06:18:49;;;;;;;9.05;8.20;;;;;;;0.71;80.33;96634.34;4372668;32;20210;-59
2022/01/26 06:21:16;;;;;;;10.27;8.27;;;;;;;0.95;79.77;96631.16;4362741;32;20196;-54
2022/01/26 06:23:42;;;;;;;8.65;7.85;;;;;;;0.84;79.58;96633.53;4356580;32;20253;-56
2022/01/26 06:26:11;;;;;;;9.00;8.23;;;;;;;0.54;80.74;96633.13;4380955;32;20173;-55
2022/01/26 06:28:42;;;;;;;9.98;8.65;;;;;;;0.18;81.64;96633.41;4371649;32;20263;-53
2022/01/26 06:31:14;;;;;;;9.25;8.35;;;;;;;-0.03;82.79;96637.75;4369859;32;20189;-55
2022/01/26 06:33:40;;;;;;;9.73;8.80;;;;;;;0.22;82.11;96639.81;4362259;32;20184;-58
2022/01/26 06:36:19;;;;;;;9.57;8.57;;;;;;;-0.08;82.24;96647.94;4375335;32;20199;-58
2022/01/26 06:38:48;;;;;;;9.13;8.20;;;;;;;0.52;80.72;96646.34;4356579;32;20252;-55
2022/01/26 06:41:22;;;;;;;8.90;8.10;;;;;;;0.46;79.97;96641.91;4361796;32;20193;-56
2022/01/26 06:43:54;;;;;;;8.98;8.07;;;;;;;0.63;79.23;96643.16;4376501;32;20187;-53
2022/01/26 06:46:44;;;;;;;12.30;8.73;;;;;;;0.70;78.90;96635.34;4360570;32;20185;-55
2022/01/26 06:51:53;;;;;;;9.80;8.18;;;;;;;0.79;78.62;96644.62;4365031;32;20196;-56
2022/01/26 06:54:21;;;;;;;10.27;9.23;;;;;;;0.63;79.38;96652.78;4350396;32;20185;-56
2022/01/26 06:56:48;;;;;;;10.07;8.65;;;;;;;0.65;78.99;96651.59;4353143;32;20215;-57
2022/01/26 06:59:15;;;;;;;11.27;9.68;;;;;;;0.79;78.73;96652.44;4384909;32;20188;-55
2022/01/26 07:01:42;;;;;;;12.65;9.55;;;;;;;0.61;79.67;96647.81;4403709;32;20195;-55
2022/01/26 07:04:11;;;;;;;11.52;9.63;;;;;;;0.58;79.64;96645.59;4372968;32;20244;-55
2022/01/26 07:06:36;;;;;;;10.93;9.05;;;;;;;0.60;79.78;96643.56;4386155;32;20294;-66
2022/01/26 07:09:02;;;;;;;9.67;8.67;;;;;;;0.58;80.49;96653.41;4396273;32;20200;-53
2022/01/26 07:11:30;;;;;;;59.13;7.17;;;;;;;0.69;80.66;96658.03;4337015;32;20193;-47
2022/01/26 07:13:58;;;;;;;40.20;14.87;;;;;;;5.02;100.00;96639.94;4377663;32;20282;-46
2022/01/26 07:21:55;;;;;;;8.63;7.73;;;;;;;8.15;64.44;96641.69;4371722;32;20331;-47
2022/01/26 07:24:24;;;;;;;9.47;7.50;;;;;;;9.36;61.50;96638.75;4355227;32;20290;-47
2022/01/26 07:26:53;;;;;;;8.53;7.47;;;;;;;9.74;56.51;96635.09;4373326;32;20290;-44
2022/01/26 07:29:24;;;;;;;8.43;7.63;;;;;;;10.26;52.52;96635.13;4390627;32;20347;-49
2022/01/26 07:31:51;;;;;;;10.73;5.80;;;;;;;10.55;53.67;96627.56;4364350;32;20295;-45
2022/01/26 07:34:21;;;;;;;13.37;7.40;;;;;;;11.16;68.46;96629.56;4394779;32;20180;-46
2022/01/26 07:36:51;;;;;;;12.30;7.13;;;;;;;11.16;61.79;96640.19;4372945;32;20238;-46
2022/01/26 07:39:29;;;;;;;8.10;7.03;;;;;;;11.64;53.91;96639.66;4363553;32;20328;-46
2022/01/26 07:41:57;;;;;;;7.73;7.00;;;;;;;11.28;48.96;96640.72;4346046;32;20248;-49
2022/01/26 07:44:24;;;;;;;9.00;8.10;;;;;;;11.08;47.98;96638.81;4366278;32;20215;-59
2022/01/26 07:46:51;;;;;;;8.73;7.97;;;;;;;8.97;47.59;96640.78;4373225;32;20202;-57
2022/01/26 07:49:19;;;;;;;10.03;8.93;;;;;;;6.77;53.14;96653.78;4358808;32;20267;-57
2022/01/26 07:51:49;;;;;;;11.83;8.47;;;;;;;6.03;56.38;96646.75;4380255;32;20187;-57
2022/01/26 07:54:16;;;;;;;10.60;9.17;;;;;;;4.87;60.41;96655.34;4371550;32;20317;-58
2022/01/26 07:56:43;;;;;;;13.07;9.70;;;;;;;3.86;64.57;96655.97;4378902;32;20272;-57
2022/01/26 07:59:10;;;;;;;11.23;10.13;;;;;;;3.38;67.32;96652.16;4346773;32;20306;-58
2022/01/26 08:01:35;;;;;;;12.93;10.07;;;;;;;3.20;68.67;96657.34;4358599;32;20277;-58
2022/01/26 08:04:03;;;;;;;11.57;10.37;;;;;;;2.77;70.48;96659.84;4353507;32;20294;-58
2022/01/26 08:06:29;;;;;;;11.77;10.50;;;;;;;2.41;72.32;96649.97;4329341;32;20253;-58
2022/01/26 08:08:56;;;;;;;12.73;10.07;;;;;;;2.56;72.28;96654.94;4341619;32;20335;-58
2022/01/26 08:11:24;;;;;;;12.43;10.43;;;;;;;2.59;72.99;96644.84;4343270;32;20276;-59
2022/01/26 08:13:54;;;;;;;13.63;10.77;;;;;;;2.30;74.13;96648.81;4357435;32;20207;-59
2022/01/26 08:16:20;;;;;;;15.23;10.40;;;;;;;2.39;74.22;96650.19;4373241;32;20279;-58
2022/01/26 08:18:48;;;;;;;11.93;9.53;;;;;;;2.58;74.09;96645.84;4381404;32;20280;-59
2022/01/26 08:21:18;;;;;;;14.33;10.33;;;;;;;2.65;73.71;96643.22;4323356;32;20285;-60
2022/01/26 08:23:44;;;;;;;15.43;10.43;;;;;;;2.53;74.27;96643.06;4374254;32;20316;-58
2022/01/26 08:26:13;;;;;;;12.27;10.27;;;;;;;2.72;73.84;96646.56;4366720;32;20271;-58
2022/01/26 08:28:41;;;;;;;14.20;11.00;;;;;;;2.38;75.34;96643.34;4388603;32;20293;-58
2022/01/26 08:31:12;;;;;;;15.40;10.63;;;;;;;2.29;76.05;96647.19;4354694;32;20314;-58
2022/01/26 08:33:38;;;;;;;13.93;10.87;;;;;;;2.81;74.26;96647.13;4359874;32;20275;-60
2022/01/26 08:36:06;;;;;;;12.03;10.73;;;;;;;2.69;74.44;96639.16;4350156;32;20284;-58
2022/01/26 08:38:32;;;;;;;14.80;11.37;;;;;;;2.59;74.65;96634.38;4364749;32;20193;-59
2022/01/26 08:40:58;;;;;;;12.40;10.63;;;;;;;2.82;74.44;96630.41;4378543;32;20364;-58
2022/01/26 08:43:25;;;;;;;13.40;10.70;;;;;;;2.75;74.90;96633.84;4359604;32;20288;-58
2022/01/26 08:45:52;;;;;;;13.23;10.53;;;;;;;2.68;74.94;96633.13;4368479;32;20284;-58
2022/01/26 08:48:19;;;;;;;14.43;11.67;;;;;;;2.46;75.89;96631.81;4344180;32;20277;-56
2022/01/26 08:50:47;;;;;;;12.93;10.70;;;;;;;2.78;74.68;96631.84;4374934;32;20241;-58
2022/01/26 08:53:12;;;;;;;15.23;10.80;;;;;;;2.95;74.21;96635.53;4380162;32;20272;-58
2022/01/26 08:55:39;;;;;;;12.23;10.17;;;;;;;3.04;73.91;96635.09;4348741;32;20280;-59
2022/01/26 08:58:05;;;;;;;13.40;11.20;;;;;;;3.17;73.84;96626.31;4384676;32;20202;-58
2022/01/26 09:00:32;;;;;;;12.57;10.80;;;;;;;3.12;73.79;96635.84;4359444;32;20368;-58
2022/01/26 09:02:59;;;;;;;16.90;11.63;;;;;;;3.19;73.27;96641.81;4373690;32;20485;-58
2022/01/26 09:05:24;;;;;;;14.73;11.47;;;;;;;3.13;73.57;96653.97;4344531;32;20288;-58
2022/01/26 09:07:50;;;;;;;15.80;10.83;;;;;;;3.24;73.57;96652.47;4360741;32;20303;-58
2022/01/26 09:10:16;;;;;;;12.47;10.13;;;;;;;3.11;73.59;96661.25;4353700;32;20239;-58
2022/01/26 09:12:44;;;;;;;12.07;9.53;;;;;;;3.11;73.27;96661.25;4347786;32;20291;-59
2022/01/26 09:15:11;;;;;;;12.13;9.47;;;;;;;3.33;72.85;96656.41;4385465;32;20180;-59
2022/01/26 09:17:37;;;;;;;15.77;11.17;;;;;;;3.35;72.45;96655.19;4373791;32;20279;-58
2022/01/26 09:20:09;;;;;;;13.70;11.67;;;;;;;3.42;72.42;96653.34;4348426;32;20280;-58
2022/01/26 09:22:36;;;;;;;16.80;11.00;;;;;;;3.29;72.52;96648.22;4375688;32;20294;-58
2022/01/26 09:25:01;;;;;;;17.40;11.13;;;;;;;3.46;72.69;96645.84;4372814;32;20382;-58
2022/01/26 09:27:27;;;;;;;13.80;10.80;;;;;;;3.43;72.57;96647.06;4358613;32;20284;-58
2022/01/26 09:29:54;;;;;;;14.67;11.17;;;;;;;3.57;72.65;96646.94;4376370;32;20191;-58
2022/01/26 09:32:20;;;;;;;14.80;11.77;;;;;;;3.90;71.20;96644.00;4373119;32;20231;-58
2022/01/26 09:34:46;;;;;;;13.07;11.57;;;;;;;3.71;71.48;96632.69;4367687;32;20328;-58
2022/01/26 09:37:16;;;;;;;15.63;11.53;;;;;;;3.64;72.29;96642.44;4363002;32;20352;-58
2022/01/26 09:39:45;;;;;;;12.83;11.53;;;;;;;3.86;71.70;96629.72;4376267;32;20234;-58
2022/01/26 09:42:11;;;;;;;16.47;11.40;;;;;;;3.93;71.39;96619.94;4355289;32;20277;-60
2022/01/26 09:44:43;;;;;;;13.63;11.00;;;;;;;4.04;71.30;96627.88;4371538;32;20286;-57
2022/01/26 09:47:09;;;;;;;14.43;11.17;;;;;;;4.08;70.99;96639.56;4359602;32;20299;-58
2022/01/26 09:49:36;;;;;;;15.83;11.27;;;;;;;4.07;71.00;96632.69;4357647;32;20283;-59
2022/01/26 09:52:13;;;;;;;15.27;11.83;;;;;;;4.24;70.44;96637.34;4363680;32;20405;-58
2022/01/26 09:54:41;;;;;;;18.33;11.13;;;;;;;4.12;70.62;96627.59;4349659;32;20433;-58
2022/01/26 09:57:07;;;;;;;13.80;11.80;;;;;;;4.19;70.39;96629.31;4365990;32;20276;-58
2022/01/26 09:59:34;;;;;;;16.07;10.83;;;;;;;4.26;69.97;96640.56;4350733;32;20367;-58
2022/01/26 10:02:02;;;;;;;16.13;11.17;;;;;;;4.30;69.28;96644.34;4337610;32;20189;-58
2022/01/26 10:04:36;;;;;;;15.97;11.07;;;;;;;4.44;69.33;96643.97;4347218;32;20273;-60
2022/01/26 10:07:22;;;;;;;13.30;10.37;;;;;;;4.50;69.03;96637.03;4376253;32;20284;-58
2022/01/26 10:10:18;;;;;;;14.03;11.23;;;;;;;4.61;69.17;96643.34;4337779;32;20337;-61
2022/01/26 10:16:02;;;;;;;13.67;10.63;;;;;;;5.05;67.40;96635.03;4363131;32;20315;-59
2022/01/26 10:18:32;;;;;;;14.17;11.53;;;;;;;4.94;67.24;96630.56;4355557;32;20367;-59
2022/01/26 10:21:04;;;;;;;13.40;12.00;;;;;;;5.16;66.54;96633.47;4373727;32;20276;-59
2022/01/26 10:23:42;;;;;;;13.93;11.33;;;;;;;5.22;66.34;96631.75;4341353;32;20360;-60
2022/01/26 10:26:14;;;;;;;16.10;11.83;;;;;;;5.21;66.29;96628.31;4361486;32;20310;-59
2022/01/26 10:28:50;;;;;;;14.47;12.03;;;;;;;5.10;66.72;96631.72;4363853;32;20275;-58
2022/01/26 10:31:24;;;;;;;15.37;12.37;;;;;;;5.04;66.22;96630.78;4375358;32;20276;-61
2022/01/26 10:34:11;;;;;;;15.97;12.27;;;;;;;5.24;66.63;96629.69;4387607;32;20351;-59
2022/01/26 10:36:41;;;;;;;16.83;12.17;;;;;;;5.35;67.04;96613.94;4381331;32;20310;-58
2022/01/26 10:39:08;;;;;;;12.43;10.40;;;;;;;5.33;65.95;96623.87;4408441;32;20287;-58
2022/01/26 10:41:40;;;;;;;14.37;11.50;;;;;;;5.19;66.77;96627.75;4384222;32;20299;-59
2022/01/26 10:44:06;;;;;;;16.07;12.07;;;;;;;5.31;65.93;96633.03;4384698;32;20329;-58
2022/01/26 10:46:39;;;;;;;13.33;11.33;;;;;;;5.22;66.21;96629.91;4384039;32;20294;-58
2022/01/26 10:52:02;;;;;;;12.80;10.97;;;;;;;5.35;65.96;96613.94;4382304;32;20355;-58
2022/01/26 10:54:37;;;;;;;14.07;11.10;;;;;;;5.36;65.75;96607.63;4396861;32;20271;-58
2022/01/26 10:57:03;;;;;;;12.47;11.10;;;;;;;5.40;65.00;96600.88;4392329;32;20294;-59
2022/01/26 10:59:28;;;;;;;16.13;12.03;;;;;;;5.68;64.93;96591.47;4387734;32;20402;-59
2022/01/26 11:01:59;;;;;;;16.23;11.77;;;;;;;5.62;65.17;96590.56;4390920;32;20284;-59
2022/01/26 11:04:25;;;;;;;13.97;11.43;;;;;;;5.55;65.59;96594.37;4370166;32;20191;-59
2022/01/26 11:06:52;;;;;;;12.87;11.57;;;;;;;5.60;65.02;96581.31;4386918;32;20301;-57
2022/01/26 11:09:21;;;;;;;16.00;11.23;;;;;;;5.69;65.21;96567.56;4387170;32;20283;-57
2022/01/26 11:11:46;;;;;;;14.27;11.70;;;;;;;5.70;65.01;96563.91;4390690;32;20314;-57
2022/01/26 11:14:21;;;;;;;14.87;10.97;;;;;;;5.78;64.81;96552.22;4398801;32;20301;-57
2022/01/26 11:16:54;;;;;;;13.63;11.13;;;;;;;5.80;65.23;96544.91;4381508;32;20231;-58
2022/01/26 11:19:20;;;;;;;13.10;11.00;;;;;;;5.75;64.47;96550.06;4385276;32;20276;-57
2022/01/26 11:21:45;;;;;;;22.40;11.53;;;;;;;5.75;64.76;96542.97;4374299;32;20281;-57
2022/01/26 11:24:19;;;;;;;11.57;10.43;;;;;;;5.77;64.79;96553.25;4384407;32;20279;-58
2022/01/26 11:26:47;;;;;;;13.57;11.00;;;;;;;6.03;64.31;96541.41;4383614;32;20183;-58
2022/01/26 11:29:31;;;;;;;12.37;10.10;;;;;;;5.79;64.34;96540.66;4396095;32;20327;-58
2022/01/26 11:32:11;;;;;;;13.43;10.40;;;;;;;5.80;64.66;96544.91;4395771;32;20290;-58
2022/01/26 11:34:37;;;;;;;11.57;10.37;;;;;;;5.81;65.00;96543.88;4375431;32;20294;-57
2022/01/26 11:37:06;;;;;;;15.60;11.57;;;;;;;5.82;65.17;96545.44;4384505;32;20355;-58
2022/01/26 11:45:04;;;;;;;12.50;11.20;;;;;;;6.04;65.49;96548.28;4391474;32;20290;-57
2022/01/26 11:45:34;;;;;;;13.57;10.83;;;;;;;6.02;64.79;96548.53;4391827;32;20311;-58
2022/01/26 11:48:05;;;;;;;15.20;11.20;;;;;;;6.05;64.86;96550.69;4399053;32;20354;-57
2022/01/26 11:50:31;;;;;;;13.53;10.93;;;;;;;6.24;63.83;96555.78;4390968;32;20288;-57
2022/01/26 11:53:18;;;;;;;12.97;11.37;;;;;;;5.98;64.87;96562.41;4381877;32;20329;-58
2022/01/26 11:55:51;;;;;;;13.63;11.70;;;;;;;6.19;64.75;96557.28;4395414;32;20287;-57
2022/01/26 11:58:53;;;;;;;14.63;12.57;;;;;;;6.02;64.72;96551.16;4374343;32;20311;-58
2022/01/26 12:01:30;;;;;;;15.53;11.80;;;;;;;5.95;64.00;96576.81;4319680;33;20270;-57
2022/01/26 12:04:03;;;;;;;13.30;11.57;;;;;;;5.93;64.49;96573.63;4378226;32;20291;-57
2022/01/26 12:06:30;;;;;;;18.63;12.80;;;;;;;5.92;64.71;96556.22;4396191;32;20272;-57
2022/01/26 12:08:58;;;;;;;16.20;11.73;;;;;;;6.14;64.28;96551.91;4382065;32;20268;-57
2022/01/26 12:11:24;;;;;;;16.27;12.67;;;;;;;6.27;64.22;96557.94;4381386;32;20328;-57
2022/01/26 12:13:58;;;;;;;14.10;12.00;;;;;;;5.81;65.41;96560.47;4378269;32;20363;-57
2022/01/26 12:16:36;;;;;;;15.53;12.20;;;;;;;5.84;65.14;96552.06;4386546;32;20204;-57
2022/01/26 12:38:09;;;;;;;14.17;12.17;;;;;;;6.10;65.55;96569.22;4375213;32;20287;-57
2022/01/26 12:43:35;;;;;;;14.30;12.80;;;;;;;6.05;64.65;96565.69;4388257;32;20283;-58
2022/01/26 12:46:21;;;;;;;16.67;12.73;;;;;;;5.88;65.67;96555.06;4383528;32;20264;-58
2022/01/26 12:48:52;;;;;;;15.30;12.47;;;;;;;5.94;65.69;96548.91;4391366;32;20363;-58
2022/01/26 12:51:19;;;;;;;23.00;14.50;;;;;;;5.80;64.97;96550.97;4386325;32;20284;-56
2022/01/26 12:53:51;;;;;;;16.73;13.03;;;;;;;5.85;66.50;96535.25;4374244;32;20410;-57
2022/01/26 12:56:17;;;;;;;18.13;14.07;;;;;;;5.91;66.05;96546.72;4367824;32;20344;-58
2022/01/26 12:58:43;;;;;;;17.13;14.10;;;;;;;6.09;65.18;96536.00;4380532;32;20276;-57
2022/01/26 13:01:17;;;;;;;20.30;14.17;;;;;;;6.24;65.06;96537.31;4372156;32;20180;-56
2022/01/26 13:03:49;;;;;;;20.13;14.67;;;;;;;6.05;65.36;96537.50;4366830;32;20279;-54
2022/01/26 13:06:25;;;;;;;19.23;14.30;;;;;;;6.14;65.79;96522.94;4375882;32;20286;-56
2022/01/26 13:08:58;;;;;;;18.87;14.53;;;;;;;6.10;64.97;96524.44;4388694;32;20295;-53
2022/01/26 13:11:26;;;;;;;20.90;14.73;;;;;;;6.11;65.32;96526.03;4367509;32;20284;-53
2022/01/26 13:14:31;;;;;;;18.03;13.87;;;;;;;6.15;65.45;96529.81;4376917;32;20313;-53
2022/01/26 13:17:37;;;;;;;19.97;14.33;;;;;;;5.97;65.83;96526.56;4366919;32;20316;-54
2022/01/26 13:23:26;;;;;;;13.30;8.60;;;;;;;9.14;94.95;96509.13;4384214;32;20276;-51
2022/01/26 13:28:56;;;;;;;16.07;12.03;;;;;;;14.49;53.02;96509.81;4387666;32;20225;-49
2022/01/26 13:34:51;;;;;;;17.93;14.67;;;;;;;14.71;41.05;96510.81;4347279;32;20196;-57
2022/01/26 13:37:35;;;;;;;17.00;14.10;;;;;;;11.74;45.49;96523.75;4358349;32;20272;-57
2022/01/26 13:40:18;;;;;;;17.93;14.63;;;;;;;9.52;51.20;96531.88;4389653;32;20255;-55
2022/01/26 13:48:37;;;;;;;14.77;12.73;;;;;;;7.58;59.30;96538.19;4383370;32;20192;-55
2022/01/26 13:51:15;;;;;;;17.87;14.20;;;;;;;7.39;60.32;96535.00;4376981;32;20287;-55
2022/01/26 13:53:50;;;;;;;15.60;13.80;;;;;;;7.15;60.82;96534.41;4368614;32;20305;-58
2022/01/26 13:56:34;;;;;;;18.10;14.20;;;;;;;6.99;61.02;96544.97;4369211;32;20281;-58
2022/01/26 13:59:12;;;;;;;17.23;14.10;;;;;;;6.74;62.14;96540.06;4369331;32;20280;-57
2022/01/26 14:01:42;;;;;;;18.67;13.47;;;;;;;6.94;61.71;96527.22;4374357;32;20273;-57
2022/01/26 14:04:07;;;;;;;18.63;14.17;;;;;;;6.78;62.18;96530.66;4368680;32;20284;-57
2022/01/26 14:06:33;;;;;;;18.57;14.63;;;;;;;6.83;62.38;96533.37;4372376;32;20322;-55
2022/01/26 14:08:58;;;;;;;20.27;15.07;;;;;;;6.62;62.92;96532.25;4377193;32;20188;-55
2022/01/26 14:11:23;;;;;;;18.93;14.83;;;;;;;6.46;63.34;96540.91;4389932;32;20232;-57